sensor_id;sensor_type;location;lat;lon;timestamp;P1;durP1;ratioP1;P2;durP2;ratioP2
16979;SDS011;42288;52.182;21.156;2023-12-22T00:01:41;13.23;;;3.30;;
16979;SDS011;42288;52.182;21.156;2023-12-22T00:04:07;21.17;;;3.63;;
16979;SDS011;42288;52.182;21.156;2023-12-22T00:06:33;18.03;;;3.57;;
16979;SDS011;42288;52.182;21.156;2023-12-22T00:08:59;16.60;;;3.30;;
16979;SDS011;42288;52.182;21.156;2023-12-22T00:11:24;12.33;;;3.53;;
16979;SDS011;42288;52.182;21.156;2023-12-22T00:13:51;17.73;;;3.07;;
16979;SDS011;42288;52.182;21.156;2023-12-22T00:16:16;9.73;;;2.60;;
16979;SDS011;42288;52.182;21.156;2023-12-22T00:18:42;14.10;;;2.53;;
16979;SDS011;42288;52.182;21.156;2023-12-22T00:21:11;16.07;;;3.77;;
16979;SDS011;42288;52.182;21.156;2023-12-22T00:23:37;14.47;;;3.30;;
16979;SDS011;42288;52.182;21.156;2023-12-22T00:26:03;20.03;;;4.53;;
16979;SDS011;42288;52.182;21.156;2023-12-22T00:28:30;16.77;;;4.10;;
16979;SDS011;42288;52.182;21.156;2023-12-22T00:30:56;12.30;;;2.73;;
16979;SDS011;42288;52.182;21.156;2023-12-22T00:33:23;15.57;;;3.13;;
16979;SDS011;42288;52.182;21.156;2023-12-22T00:35:49;12.23;;;2.90;;
16979;SDS011;42288;52.182;21.156;2023-12-22T00:38:14;12.07;;;2.77;;
16979;SDS011;42288;52.182;21.156;2023-12-22T00:40:40;15.90;;;3.00;;
16979;SDS011;42288;52.182;21.156;2023-12-22T00:43:06;16.50;;;3.30;;
16979;SDS011;42288;52.182;21.156;2023-12-22T00:45:31;14.13;;;3.17;;
16979;SDS011;42288;52.182;21.156;2023-12-22T00:47:57;13.93;;;2.40;;
16979;SDS011;42288;52.182;21.156;2023-12-22T00:50:23;12.97;;;2.90;;
16979;SDS011;42288;52.182;21.156;2023-12-22T00:52:51;18.80;;;3.50;;
16979;SDS011;42288;52.182;21.156;2023-12-22T00:55:17;16.83;;;3.10;;
16979;SDS011;42288;52.182;21.156;2023-12-22T00:57:43;15.07;;;2.87;;
16979;SDS011;42288;52.182;21.156;2023-12-22T01:00:09;15.90;;;3.20;;
16979;SDS011;42288;52.182;21.156;2023-12-22T01:02:38;11.47;;;2.43;;
16979;SDS011;42288;52.182;21.156;2023-12-22T01:05:04;12.53;;;2.73;;
16979;SDS011;42288;52.182;21.156;2023-12-22T01:07:30;15.27;;;3.20;;
16979;SDS011;42288;52.182;21.156;2023-12-22T01:09:56;15.80;;;2.60;;
16979;SDS011;42288;52.182;21.156;2023-12-22T01:12:26;15.70;;;3.07;;
16979;SDS011;42288;52.182;21.156;2023-12-22T01:14:52;10.03;;;2.73;;
16979;SDS011;42288;52.182;21.156;2023-12-22T01:17:18;8.53;;;2.83;;
16979;SDS011;42288;52.182;21.156;2023-12-22T01:19:44;16.60;;;3.10;;
16979;SDS011;42288;52.182;21.156;2023-12-22T01:22:10;9.23;;;2.53;;
16979;SDS011;42288;52.182;21.156;2023-12-22T01:24:36;13.33;;;2.97;;
16979;SDS011;42288;52.182;21.156;2023-12-22T01:27:04;15.33;;;2.80;;
16979;SDS011;42288;52.182;21.156;2023-12-22T01:29:30;13.57;;;3.00;;
16979;SDS011;42288;52.182;21.156;2023-12-22T01:31:56;19.37;;;3.30;;
16979;SDS011;42288;52.182;21.156;2023-12-22T01:34:21;12.77;;;3.27;;
16979;SDS011;42288;52.182;21.156;2023-12-22T01:36:47;14.97;;;3.20;;
16979;SDS011;42288;52.182;21.156;2023-12-22T01:39:13;17.00;;;3.40;;
16979;SDS011;42288;52.182;21.156;2023-12-22T01:41:39;18.30;;;3.47;;
16979;SDS011;42288;52.182;21.156;2023-12-22T01:44:04;11.57;;;2.60;;
16979;SDS011;42288;52.182;21.156;2023-12-22T01:46:30;20.03;;;3.47;;
16979;SDS011;42288;52.182;21.156;2023-12-22T01:48:58;14.30;;;3.47;;
16979;SDS011;42288;52.182;21.156;2023-12-22T01:51:26;12.07;;;3.00;;
16979;SDS011;42288;52.182;21.156;2023-12-22T01:53:53;9.80;;;2.73;;
16979;SDS011;42288;52.182;21.156;2023-12-22T01:56:20;14.10;;;2.67;;
16979;SDS011;42288;52.182;21.156;2023-12-22T01:58:46;19.83;;;3.10;;
16979;SDS011;42288;52.182;21.156;2023-12-22T02:01:15;16.20;;;2.90;;
16979;SDS011;42288;52.182;21.156;2023-12-22T02:03:40;18.17;;;3.03;;
16979;SDS011;42288;52.182;21.156;2023-12-22T02:06:36;20.57;;;3.80;;
16979;SDS011;42288;52.182;21.156;2023-12-22T02:09:04;24.93;;;3.97;;
16979;SDS011;42288;52.182;21.156;2023-12-22T02:11:29;24.40;;;4.37;;
16979;SDS011;42288;52.182;21.156;2023-12-22T02:13:55;24.03;;;3.70;;
16979;SDS011;42288;52.182;21.156;2023-12-22T02:19:39;16.03;;;3.07;;
16979;SDS011;42288;52.182;21.156;2023-12-22T02:22:07;16.60;;;3.30;;
16979;SDS011;42288;52.182;21.156;2023-12-22T02:24:37;18.87;;;2.97;;
16979;SDS011;42288;52.182;21.156;2023-12-22T02:30:13;19.77;;;3.33;;
16979;SDS011;42288;52.182;21.156;2023-12-22T02:32:43;16.03;;;3.83;;
16979;SDS011;42288;52.182;21.156;2023-12-22T02:35:23;16.17;;;2.97;;
16979;SDS011;42288;52.182;21.156;2023-12-22T02:37:51;15.87;;;3.33;;
16979;SDS011;42288;52.182;21.156;2023-12-22T02:40:17;16.57;;;3.60;;
16979;SDS011;42288;52.182;21.156;2023-12-22T02:42:44;14.97;;;2.80;;
16979;SDS011;42288;52.182;21.156;2023-12-22T02:45:13;19.13;;;4.00;;
16979;SDS011;42288;52.182;21.156;2023-12-22T02:47:42;16.83;;;3.23;;
16979;SDS011;42288;52.182;21.156;2023-12-22T02:50:08;14.17;;;3.53;;
16979;SDS011;42288;52.182;21.156;2023-12-22T02:52:35;21.73;;;3.53;;
16979;SDS011;42288;52.182;21.156;2023-12-22T02:55:01;12.77;;;2.87;;
16979;SDS011;42288;52.182;21.156;2023-12-22T02:57:27;16.67;;;3.23;;
16979;SDS011;42288;52.182;21.156;2023-12-22T02:59:53;19.50;;;3.40;;
16979;SDS011;42288;52.182;21.156;2023-12-22T03:02:18;20.07;;;3.23;;
16979;SDS011;42288;52.182;21.156;2023-12-22T03:04:44;12.00;;;2.87;;
16979;SDS011;42288;52.182;21.156;2023-12-22T03:07:11;16.27;;;3.40;;
16979;SDS011;42288;52.182;21.156;2023-12-22T03:09:37;16.37;;;3.67;;
16979;SDS011;42288;52.182;21.156;2023-12-22T03:12:03;13.87;;;3.10;;
16979;SDS011;42288;52.182;21.156;2023-12-22T03:14:29;12.43;;;3.17;;
16979;SDS011;42288;52.182;21.156;2023-12-22T03:16:56;13.90;;;3.03;;
16979;SDS011;42288;52.182;21.156;2023-12-22T03:19:21;12.70;;;3.00;;
16979;SDS011;42288;52.182;21.156;2023-12-22T03:21:50;13.40;;;3.17;;
16979;SDS011;42288;52.182;21.156;2023-12-22T03:24:16;15.67;;;3.37;;
16979;SDS011;42288;52.182;21.156;2023-12-22T03:26:44;16.37;;;3.60;;
16979;SDS011;42288;52.182;21.156;2023-12-22T03:29:10;14.30;;;3.13;;
16979;SDS011;42288;52.182;21.156;2023-12-22T03:31:35;15.27;;;3.60;;
16979;SDS011;42288;52.182;21.156;2023-12-22T03:34:01;16.63;;;3.17;;
16979;SDS011;42288;52.182;21.156;2023-12-22T03:36:29;21.07;;;3.10;;
16979;SDS011;42288;52.182;21.156;2023-12-22T03:38:55;15.93;;;3.30;;
16979;SDS011;42288;52.182;21.156;2023-12-22T03:41:21;12.77;;;3.10;;
16979;SDS011;42288;52.182;21.156;2023-12-22T03:43:46;16.73;;;3.43;;
16979;SDS011;42288;52.182;21.156;2023-12-22T03:46:12;14.07;;;4.60;;
16979;SDS011;42288;52.182;21.156;2023-12-22T03:48:37;19.77;;;3.63;;
16979;SDS011;42288;52.182;21.156;2023-12-22T03:51:03;17.00;;;3.50;;
16979;SDS011;42288;52.182;21.156;2023-12-22T03:53:29;18.57;;;3.67;;
16979;SDS011;42288;52.182;21.156;2023-12-22T03:55:54;13.40;;;3.60;;
16979;SDS011;42288;52.182;21.156;2023-12-22T03:58:20;13.03;;;3.20;;
16979;SDS011;42288;52.182;21.156;2023-12-22T04:00:46;14.23;;;3.27;;
16979;SDS011;42288;52.182;21.156;2023-12-22T04:03:12;16.37;;;3.47;;
16979;SDS011;42288;52.182;21.156;2023-12-22T04:05:38;20.50;;;3.83;;
16979;SDS011;42288;52.182;21.156;2023-12-22T04:08:04;16.13;;;4.37;;
16979;SDS011;42288;52.182;21.156;2023-12-22T04:10:30;15.20;;;3.63;;
16979;SDS011;42288;52.182;21.156;2023-12-22T04:12:56;11.73;;;2.87;;
16979;SDS011;42288;52.182;21.156;2023-12-22T04:15:22;19.47;;;3.53;;
16979;SDS011;42288;52.182;21.156;2023-12-22T04:17:50;13.40;;;3.20;;
16979;SDS011;42288;52.182;21.156;2023-12-22T04:20:16;14.13;;;3.70;;
16979;SDS011;42288;52.182;21.156;2023-12-22T04:22:41;19.20;;;3.73;;
16979;SDS011;42288;52.182;21.156;2023-12-22T04:25:07;17.77;;;3.63;;
16979;SDS011;42288;52.182;21.156;2023-12-22T04:27:33;22.20;;;4.00;;
16979;SDS011;42288;52.182;21.156;2023-12-22T04:30:00;19.73;;;3.87;;
16979;SDS011;42288;52.182;21.156;2023-12-22T04:32:25;20.00;;;3.70;;
16979;SDS011;42288;52.182;21.156;2023-12-22T04:34:51;10.80;;;3.23;;
16979;SDS011;42288;52.182;21.156;2023-12-22T04:37:17;13.23;;;3.60;;
16979;SDS011;42288;52.182;21.156;2023-12-22T04:39:43;16.57;;;3.60;;
16979;SDS011;42288;52.182;21.156;2023-12-22T04:42:08;11.87;;;3.30;;
16979;SDS011;42288;52.182;21.156;2023-12-22T04:44:34;12.70;;;3.30;;
16979;SDS011;42288;52.182;21.156;2023-12-22T04:47:00;11.27;;;3.27;;
16979;SDS011;42288;52.182;21.156;2023-12-22T04:49:26;16.10;;;3.50;;
16979;SDS011;42288;52.182;21.156;2023-12-22T04:51:52;15.40;;;3.20;;
16979;SDS011;42288;52.182;21.156;2023-12-22T04:54:17;22.80;;;3.43;;
16979;SDS011;42288;52.182;21.156;2023-12-22T04:56:43;13.77;;;3.33;;
16979;SDS011;42288;52.182;21.156;2023-12-22T04:59:08;16.33;;;3.53;;
16979;SDS011;42288;52.182;21.156;2023-12-22T05:01:34;19.37;;;3.80;;
16979;SDS011;42288;52.182;21.156;2023-12-22T05:04:00;14.30;;;3.17;;
16979;SDS011;42288;52.182;21.156;2023-12-22T05:06:27;22.10;;;3.57;;
16979;SDS011;42288;52.182;21.156;2023-12-22T05:08:54;22.90;;;3.53;;
16979;SDS011;42288;52.182;21.156;2023-12-22T05:11:19;18.80;;;3.90;;
16979;SDS011;42288;52.182;21.156;2023-12-22T05:13:45;19.50;;;4.53;;
16979;SDS011;42288;52.182;21.156;2023-12-22T05:16:11;18.07;;;3.10;;
16979;SDS011;42288;52.182;21.156;2023-12-22T05:18:40;15.70;;;3.80;;
16979;SDS011;42288;52.182;21.156;2023-12-22T05:21:07;16.73;;;3.10;;
16979;SDS011;42288;52.182;21.156;2023-12-22T05:23:32;14.77;;;3.50;;
16979;SDS011;42288;52.182;21.156;2023-12-22T05:25:58;14.83;;;3.13;;
16979;SDS011;42288;52.182;21.156;2023-12-22T05:28:24;12.30;;;3.70;;
16979;SDS011;42288;52.182;21.156;2023-12-22T05:30:49;19.20;;;3.80;;
16979;SDS011;42288;52.182;21.156;2023-12-22T05:33:15;14.30;;;3.60;;
16979;SDS011;42288;52.182;21.156;2023-12-22T05:35:41;15.73;;;4.07;;
16979;SDS011;42288;52.182;21.156;2023-12-22T05:38:06;14.20;;;3.60;;
16979;SDS011;42288;52.182;21.156;2023-12-22T05:40:32;16.63;;;3.20;;
16979;SDS011;42288;52.182;21.156;2023-12-22T05:42:58;13.47;;;3.40;;
16979;SDS011;42288;52.182;21.156;2023-12-22T05:45:24;20.40;;;3.90;;
16979;SDS011;42288;52.182;21.156;2023-12-22T05:47:50;21.90;;;3.50;;
16979;SDS011;42288;52.182;21.156;2023-12-22T05:50:16;21.60;;;4.47;;
16979;SDS011;42288;52.182;21.156;2023-12-22T05:52:42;15.17;;;3.40;;
16979;SDS011;42288;52.182;21.156;2023-12-22T05:55:10;18.77;;;4.10;;
16979;SDS011;42288;52.182;21.156;2023-12-22T05:57:36;20.70;;;3.80;;
16979;SDS011;42288;52.182;21.156;2023-12-22T06:00:03;18.60;;;4.67;;
16979;SDS011;42288;52.182;21.156;2023-12-22T06:02:32;20.23;;;3.80;;
16979;SDS011;42288;52.182;21.156;2023-12-22T06:04:59;20.00;;;3.40;;
16979;SDS011;42288;52.182;21.156;2023-12-22T06:07:25;20.90;;;3.83;;
16979;SDS011;42288;52.182;21.156;2023-12-22T06:09:51;17.03;;;3.90;;
16979;SDS011;42288;52.182;21.156;2023-12-22T06:12:17;20.03;;;2.90;;
16979;SDS011;42288;52.182;21.156;2023-12-22T06:14:43;23.53;;;4.73;;
16979;SDS011;42288;52.182;21.156;2023-12-22T06:17:09;21.10;;;4.03;;
16979;SDS011;42288;52.182;21.156;2023-12-22T06:19:37;22.33;;;4.10;;
16979;SDS011;42288;52.182;21.156;2023-12-22T06:22:03;19.60;;;4.00;;
16979;SDS011;42288;52.182;21.156;2023-12-22T06:24:29;27.97;;;3.30;;
16979;SDS011;42288;52.182;21.156;2023-12-22T06:26:58;14.37;;;3.10;;
16979;SDS011;42288;52.182;21.156;2023-12-22T06:29:24;18.63;;;3.37;;
16979;SDS011;42288;52.182;21.156;2023-12-22T06:31:49;20.83;;;3.87;;
16979;SDS011;42288;52.182;21.156;2023-12-22T06:34:18;24.03;;;3.63;;
16979;SDS011;42288;52.182;21.156;2023-12-22T06:36:44;17.23;;;3.63;;
16979;SDS011;42288;52.182;21.156;2023-12-22T06:39:10;16.00;;;3.23;;
16979;SDS011;42288;52.182;21.156;2023-12-22T06:41:35;18.63;;;3.30;;
16979;SDS011;42288;52.182;21.156;2023-12-22T06:44:01;18.27;;;3.73;;
16979;SDS011;42288;52.182;21.156;2023-12-22T06:46:27;22.20;;;3.57;;
16979;SDS011;42288;52.182;21.156;2023-12-22T06:48:54;20.27;;;3.97;;
16979;SDS011;42288;52.182;21.156;2023-12-22T06:51:27;16.63;;;3.23;;
16979;SDS011;42288;52.182;21.156;2023-12-22T06:54:00;21.50;;;3.57;;
16979;SDS011;42288;52.182;21.156;2023-12-22T06:56:27;21.30;;;3.43;;
16979;SDS011;42288;52.182;21.156;2023-12-22T06:58:55;13.97;;;2.93;;
16979;SDS011;42288;52.182;21.156;2023-12-22T07:01:26;21.63;;;3.27;;
16979;SDS011;42288;52.182;21.156;2023-12-22T07:03:59;13.40;;;2.83;;
16979;SDS011;42288;52.182;21.156;2023-12-22T07:06:26;18.07;;;3.87;;
16979;SDS011;42288;52.182;21.156;2023-12-22T07:11:38;17.23;;;3.63;;
16979;SDS011;42288;52.182;21.156;2023-12-22T07:14:04;14.20;;;2.83;;
16979;SDS011;42288;52.182;21.156;2023-12-22T07:16:30;16.20;;;2.73;;
16979;SDS011;42288;52.182;21.156;2023-12-22T07:18:57;17.20;;;3.63;;
16979;SDS011;42288;52.182;21.156;2023-12-22T07:21:23;18.10;;;3.53;;
16979;SDS011;42288;52.182;21.156;2023-12-22T07:23:49;18.57;;;3.07;;
16979;SDS011;42288;52.182;21.156;2023-12-22T07:26:14;15.03;;;3.03;;
16979;SDS011;42288;52.182;21.156;2023-12-22T07:28:40;16.47;;;3.10;;
16979;SDS011;42288;52.182;21.156;2023-12-22T07:31:05;15.73;;;3.07;;
16979;SDS011;42288;52.182;21.156;2023-12-22T07:33:31;22.87;;;3.43;;
16979;SDS011;42288;52.182;21.156;2023-12-22T07:35:57;16.57;;;2.80;;
16979;SDS011;42288;52.182;21.156;2023-12-22T07:38:23;13.57;;;2.67;;
16979;SDS011;42288;52.182;21.156;2023-12-22T07:40:48;12.73;;;2.43;;
16979;SDS011;42288;52.182;21.156;2023-12-22T07:43:14;10.50;;;3.00;;
16979;SDS011;42288;52.182;21.156;2023-12-22T07:45:40;24.43;;;4.13;;
16979;SDS011;42288;52.182;21.156;2023-12-22T07:48:06;20.73;;;3.30;;
16979;SDS011;42288;52.182;21.156;2023-12-22T07:50:32;19.50;;;3.40;;
16979;SDS011;42288;52.182;21.156;2023-12-22T07:52:58;11.80;;;2.93;;
16979;SDS011;42288;52.182;21.156;2023-12-22T07:55:24;18.23;;;3.30;;
16979;SDS011;42288;52.182;21.156;2023-12-22T07:57:50;11.00;;;2.80;;
16979;SDS011;42288;52.182;21.156;2023-12-22T08:00:16;17.63;;;2.73;;
16979;SDS011;42288;52.182;21.156;2023-12-22T08:02:42;17.70;;;3.10;;
16979;SDS011;42288;52.182;21.156;2023-12-22T08:05:08;14.37;;;2.97;;
16979;SDS011;42288;52.182;21.156;2023-12-22T08:07:34;16.53;;;2.50;;
16979;SDS011;42288;52.182;21.156;2023-12-22T08:10:00;15.17;;;2.50;;
16979;SDS011;42288;52.182;21.156;2023-12-22T08:12:27;13.33;;;2.43;;
16979;SDS011;42288;52.182;21.156;2023-12-22T08:14:53;14.00;;;2.60;;
16979;SDS011;42288;52.182;21.156;2023-12-22T08:17:19;20.27;;;3.30;;
16979;SDS011;42288;52.182;21.156;2023-12-22T08:19:44;15.63;;;3.03;;
16979;SDS011;42288;52.182;21.156;2023-12-22T08:22:10;16.53;;;3.03;;
16979;SDS011;42288;52.182;21.156;2023-12-22T08:24:38;16.10;;;2.77;;
16979;SDS011;42288;52.182;21.156;2023-12-22T08:27:04;10.20;;;2.40;;
16979;SDS011;42288;52.182;21.156;2023-12-22T08:29:31;16.33;;;2.80;;
16979;SDS011;42288;52.182;21.156;2023-12-22T08:31:57;14.93;;;2.80;;
16979;SDS011;42288;52.182;21.156;2023-12-22T08:34:23;18.17;;;3.23;;
16979;SDS011;42288;52.182;21.156;2023-12-22T08:36:52;14.83;;;2.77;;
16979;SDS011;42288;52.182;21.156;2023-12-22T08:39:17;10.70;;;2.53;;
16979;SDS011;42288;52.182;21.156;2023-12-22T08:41:44;11.53;;;2.47;;
16979;SDS011;42288;52.182;21.156;2023-12-22T08:44:10;10.00;;;2.73;;
16979;SDS011;42288;52.182;21.156;2023-12-22T08:46:39;11.77;;;2.67;;
16979;SDS011;42288;52.182;21.156;2023-12-22T08:49:05;9.50;;;2.77;;
16979;SDS011;42288;52.182;21.156;2023-12-22T08:51:31;16.13;;;3.37;;
16979;SDS011;42288;52.182;21.156;2023-12-22T08:53:57;12.63;;;2.80;;
16979;SDS011;42288;52.182;21.156;2023-12-22T08:56:27;13.77;;;3.20;;
16979;SDS011;42288;52.182;21.156;2023-12-22T08:58:53;16.53;;;2.97;;
16979;SDS011;42288;52.182;21.156;2023-12-22T09:01:24;17.50;;;2.80;;
16979;SDS011;42288;52.182;21.156;2023-12-22T09:03:50;18.67;;;2.90;;
16979;SDS011;42288;52.182;21.156;2023-12-22T09:06:20;11.17;;;2.73;;
16979;SDS011;42288;52.182;21.156;2023-12-22T09:08:47;7.50;;;2.30;;
16979;SDS011;42288;52.182;21.156;2023-12-22T09:11:15;16.13;;;3.60;;
16979;SDS011;42288;52.182;21.156;2023-12-22T09:13:42;14.57;;;3.33;;
16979;SDS011;42288;52.182;21.156;2023-12-22T09:16:08;14.40;;;2.67;;
16979;SDS011;42288;52.182;21.156;2023-12-22T09:18:35;19.03;;;2.90;;
16979;SDS011;42288;52.182;21.156;2023-12-22T09:21:01;13.63;;;3.17;;
16979;SDS011;42288;52.182;21.156;2023-12-22T09:23:27;18.27;;;3.13;;
16979;SDS011;42288;52.182;21.156;2023-12-22T09:25:54;13.83;;;2.40;;
16979;SDS011;42288;52.182;21.156;2023-12-22T09:28:20;13.10;;;3.00;;
16979;SDS011;42288;52.182;21.156;2023-12-22T09:30:45;12.23;;;3.20;;
16979;SDS011;42288;52.182;21.156;2023-12-22T09:33:11;11.13;;;2.77;;
16979;SDS011;42288;52.182;21.156;2023-12-22T09:35:37;13.30;;;3.40;;
16979;SDS011;42288;52.182;21.156;2023-12-22T09:38:06;13.17;;;2.73;;
16979;SDS011;42288;52.182;21.156;2023-12-22T09:40:34;14.33;;;2.97;;
16979;SDS011;42288;52.182;21.156;2023-12-22T09:43:01;16.97;;;3.53;;
16979;SDS011;42288;52.182;21.156;2023-12-22T09:45:27;10.37;;;2.20;;
16979;SDS011;42288;52.182;21.156;2023-12-22T09:47:55;9.40;;;2.13;;
16979;SDS011;42288;52.182;21.156;2023-12-22T09:50:23;13.37;;;3.10;;
16979;SDS011;42288;52.182;21.156;2023-12-22T09:52:51;9.97;;;2.37;;
16979;SDS011;42288;52.182;21.156;2023-12-22T09:55:16;14.53;;;2.90;;
16979;SDS011;42288;52.182;21.156;2023-12-22T09:57:43;16.87;;;2.90;;
16979;SDS011;42288;52.182;21.156;2023-12-22T10:00:10;9.53;;;2.30;;
16979;SDS011;42288;52.182;21.156;2023-12-22T10:02:37;12.10;;;3.07;;
16979;SDS011;42288;52.182;21.156;2023-12-22T10:05:05;10.17;;;2.47;;
16979;SDS011;42288;52.182;21.156;2023-12-22T10:07:31;10.10;;;2.47;;
16979;SDS011;42288;52.182;21.156;2023-12-22T10:09:58;11.07;;;2.60;;
16979;SDS011;42288;52.182;21.156;2023-12-22T10:12:25;11.27;;;3.00;;
16979;SDS011;42288;52.182;21.156;2023-12-22T10:14:57;9.07;;;2.17;;
16979;SDS011;42288;52.182;21.156;2023-12-22T10:17:25;13.47;;;2.37;;
16979;SDS011;42288;52.182;21.156;2023-12-22T10:19:51;7.80;;;2.00;;
16979;SDS011;42288;52.182;21.156;2023-12-22T10:22:16;19.27;;;3.03;;
16979;SDS011;42288;52.182;21.156;2023-12-22T10:24:45;13.83;;;3.13;;
16979;SDS011;42288;52.182;21.156;2023-12-22T10:27:15;10.03;;;2.00;;
16979;SDS011;42288;52.182;21.156;2023-12-22T10:29:55;10.20;;;1.83;;
16979;SDS011;42288;52.182;21.156;2023-12-22T10:32:21;11.20;;;1.90;;
16979;SDS011;42288;52.182;21.156;2023-12-22T10:34:48;12.70;;;1.97;;
16979;SDS011;42288;52.182;21.156;2023-12-22T10:37:16;16.13;;;2.43;;
16979;SDS011;42288;52.182;21.156;2023-12-22T10:39:42;17.13;;;2.30;;
16979;SDS011;42288;52.182;21.156;2023-12-22T10:42:07;7.33;;;1.63;;
16979;SDS011;42288;52.182;21.156;2023-12-22T10:44:35;12.73;;;2.27;;
16979;SDS011;42288;52.182;21.156;2023-12-22T10:47:05;12.10;;;2.23;;
16979;SDS011;42288;52.182;21.156;2023-12-22T10:49:31;16.30;;;3.30;;
16979;SDS011;42288;52.182;21.156;2023-12-22T10:51:57;7.13;;;3.27;;
16979;SDS011;42288;52.182;21.156;2023-12-22T10:54:23;6.80;;;2.00;;
16979;SDS011;42288;52.182;21.156;2023-12-22T10:56:48;10.30;;;2.20;;
16979;SDS011;42288;52.182;21.156;2023-12-22T10:59:22;4.20;;;1.73;;
16979;SDS011;42288;52.182;21.156;2023-12-22T11:01:48;10.83;;;2.90;;
16979;SDS011;42288;52.182;21.156;2023-12-22T11:04:19;6.33;;;2.40;;
16979;SDS011;42288;52.182;21.156;2023-12-22T11:06:45;8.13;;;3.30;;
16979;SDS011;42288;52.182;21.156;2023-12-22T11:09:14;8.43;;;3.37;;
16979;SDS011;42288;52.182;21.156;2023-12-22T11:11:42;8.90;;;2.90;;
16979;SDS011;42288;52.182;21.156;2023-12-22T11:14:09;8.10;;;2.03;;
16979;SDS011;42288;52.182;21.156;2023-12-22T11:16:36;8.10;;;2.77;;
16979;SDS011;42288;52.182;21.156;2023-12-22T11:19:02;9.67;;;2.90;;
16979;SDS011;42288;52.182;21.156;2023-12-22T11:21:28;11.53;;;2.97;;
16979;SDS011;42288;52.182;21.156;2023-12-22T11:23:57;14.53;;;2.73;;
16979;SDS011;42288;52.182;21.156;2023-12-22T11:26:23;11.87;;;3.07;;
16979;SDS011;42288;52.182;21.156;2023-12-22T11:28:50;11.07;;;2.80;;
16979;SDS011;42288;52.182;21.156;2023-12-22T11:31:17;5.93;;;2.20;;
16979;SDS011;42288;52.182;21.156;2023-12-22T11:33:43;17.33;;;2.57;;
16979;SDS011;42288;52.182;21.156;2023-12-22T11:36:11;14.07;;;2.60;;
16979;SDS011;42288;52.182;21.156;2023-12-22T11:38:38;5.20;;;2.67;;
16979;SDS011;42288;52.182;21.156;2023-12-22T11:41:09;11.37;;;3.20;;
16979;SDS011;42288;52.182;21.156;2023-12-22T11:43:38;11.67;;;2.50;;
16979;SDS011;42288;52.182;21.156;2023-12-22T11:46:05;16.20;;;2.70;;
16979;SDS011;42288;52.182;21.156;2023-12-22T11:48:30;9.73;;;2.37;;
16979;SDS011;42288;52.182;21.156;2023-12-22T11:50:56;13.00;;;3.20;;
16979;SDS011;42288;52.182;21.156;2023-12-22T11:53:22;15.37;;;3.37;;
16979;SDS011;42288;52.182;21.156;2023-12-22T11:56:02;10.83;;;3.00;;
16979;SDS011;42288;52.182;21.156;2023-12-22T11:58:35;10.87;;;3.13;;
16979;SDS011;42288;52.182;21.156;2023-12-22T12:01:02;14.00;;;3.30;;
16979;SDS011;42288;52.182;21.156;2023-12-22T12:03:30;12.57;;;2.80;;
16979;SDS011;42288;52.182;21.156;2023-12-22T12:06:15;12.37;;;3.20;;
16979;SDS011;42288;52.182;21.156;2023-12-22T12:08:42;9.60;;;2.70;;
16979;SDS011;42288;52.182;21.156;2023-12-22T12:11:08;8.27;;;2.67;;
16979;SDS011;42288;52.182;21.156;2023-12-22T12:13:34;15.20;;;2.93;;
16979;SDS011;42288;52.182;21.156;2023-12-22T12:16:02;11.90;;;3.17;;
16979;SDS011;42288;52.182;21.156;2023-12-22T12:18:31;6.67;;;2.27;;
16979;SDS011;42288;52.182;21.156;2023-12-22T12:20:58;6.77;;;2.67;;
16979;SDS011;42288;52.182;21.156;2023-12-22T12:23:26;13.97;;;3.50;;
16979;SDS011;42288;52.182;21.156;2023-12-22T12:25:53;14.20;;;3.70;;
16979;SDS011;42288;52.182;21.156;2023-12-22T12:28:24;10.00;;;2.90;;
16979;SDS011;42288;52.182;21.156;2023-12-22T12:30:56;6.83;;;3.07;;
16979;SDS011;42288;52.182;21.156;2023-12-22T12:33:24;11.23;;;3.53;;
16979;SDS011;42288;52.182;21.156;2023-12-22T12:35:52;5.97;;;2.93;;
16979;SDS011;42288;52.182;21.156;2023-12-22T12:38:23;9.67;;;2.73;;
16979;SDS011;42288;52.182;21.156;2023-12-22T12:41:00;11.70;;;4.67;;
16979;SDS011;42288;52.182;21.156;2023-12-22T12:43:31;13.90;;;3.87;;
16979;SDS011;42288;52.182;21.156;2023-12-22T12:46:07;11.10;;;3.03;;
16979;SDS011;42288;52.182;21.156;2023-12-22T12:48:34;9.80;;;3.87;;
16979;SDS011;42288;52.182;21.156;2023-12-22T12:51:05;9.80;;;3.20;;
16979;SDS011;42288;52.182;21.156;2023-12-22T12:53:32;9.00;;;2.50;;
16979;SDS011;42288;52.182;21.156;2023-12-22T12:55:58;6.03;;;2.90;;
16979;SDS011;42288;52.182;21.156;2023-12-22T12:58:28;11.43;;;3.37;;
16979;SDS011;42288;52.182;21.156;2023-12-22T13:01:03;11.13;;;3.00;;
16979;SDS011;42288;52.182;21.156;2023-12-22T13:03:32;8.43;;;3.23;;
16979;SDS011;42288;52.182;21.156;2023-12-22T13:06:07;16.73;;;4.30;;
16979;SDS011;42288;52.182;21.156;2023-12-22T13:08:33;11.07;;;3.87;;
16979;SDS011;42288;52.182;21.156;2023-12-22T13:10:59;9.70;;;3.30;;
16979;SDS011;42288;52.182;21.156;2023-12-22T13:13:29;12.50;;;3.57;;
16979;SDS011;42288;52.182;21.156;2023-12-22T13:15:54;6.83;;;3.60;;
16979;SDS011;42288;52.182;21.156;2023-12-22T13:18:21;5.57;;;2.57;;
16979;SDS011;42288;52.182;21.156;2023-12-22T13:20:46;8.03;;;3.30;;
16979;SDS011;42288;52.182;21.156;2023-12-22T13:23:12;14.40;;;7.60;;
16979;SDS011;42288;52.182;21.156;2023-12-22T13:25:43;13.30;;;5.37;;
16979;SDS011;42288;52.182;21.156;2023-12-22T13:28:08;19.20;;;5.67;;
16979;SDS011;42288;52.182;21.156;2023-12-22T13:30:34;14.03;;;5.67;;
16979;SDS011;42288;52.182;21.156;2023-12-22T13:33:01;9.73;;;3.90;;
16979;SDS011;42288;52.182;21.156;2023-12-22T13:35:28;11.73;;;4.00;;
16979;SDS011;42288;52.182;21.156;2023-12-22T13:37:54;7.47;;;3.50;;
16979;SDS011;42288;52.182;21.156;2023-12-22T13:40:20;10.70;;;3.80;;
16979;SDS011;42288;52.182;21.156;2023-12-22T13:42:53;11.50;;;4.10;;
16979;SDS011;42288;52.182;21.156;2023-12-22T13:45:22;17.07;;;4.57;;
16979;SDS011;42288;52.182;21.156;2023-12-22T13:47:49;12.43;;;3.97;;
16979;SDS011;42288;52.182;21.156;2023-12-22T13:50:15;15.17;;;4.40;;
16979;SDS011;42288;52.182;21.156;2023-12-22T13:52:41;12.27;;;4.23;;
16979;SDS011;42288;52.182;21.156;2023-12-22T13:55:14;12.97;;;4.07;;
16979;SDS011;42288;52.182;21.156;2023-12-22T13:57:40;17.57;;;4.87;;
16979;SDS011;42288;52.182;21.156;2023-12-22T14:02:45;14.67;;;4.60;;
16979;SDS011;42288;52.182;21.156;2023-12-22T14:05:14;18.57;;;5.17;;
16979;SDS011;42288;52.182;21.156;2023-12-22T14:07:43;12.07;;;4.40;;
16979;SDS011;42288;52.182;21.156;2023-12-22T14:10:10;14.53;;;4.50;;
16979;SDS011;42288;52.182;21.156;2023-12-22T14:12:36;16.30;;;4.37;;
16979;SDS011;42288;52.182;21.156;2023-12-22T14:15:06;13.00;;;5.10;;
16979;SDS011;42288;52.182;21.156;2023-12-22T14:17:32;13.20;;;3.50;;
16979;SDS011;42288;52.182;21.156;2023-12-22T14:19:58;15.53;;;4.47;;
16979;SDS011;42288;52.182;21.156;2023-12-22T14:22:23;17.50;;;4.97;;
16979;SDS011;42288;52.182;21.156;2023-12-22T14:24:49;16.93;;;5.17;;
16979;SDS011;42288;52.182;21.156;2023-12-22T14:27:15;16.73;;;5.37;;
16979;SDS011;42288;52.182;21.156;2023-12-22T14:29:45;19.37;;;5.10;;
16979;SDS011;42288;52.182;21.156;2023-12-22T14:32:11;19.13;;;5.57;;
16979;SDS011;42288;52.182;21.156;2023-12-22T14:34:37;14.43;;;5.33;;